sensor_id;sensor_type;location;lat;lon;timestamp;pressure;altitude;pressure_sealevel;temperature;humidity
56082;BME280;41957;52.060;5.138;2022-08-01T00:00:26;101750.00;;;23.32;63.36
56082;BME280;41957;52.060;5.138;2022-08-01T00:02:51;101744.63;;;23.32;63.21
56082;BME280;41957;52.060;5.138;2022-08-01T00:05:16;101739.25;;;23.32;63.50
56082;BME280;41957;52.060;5.138;2022-08-01T00:07:42;101742.91;;;23.31;63.58
56082;BME280;41957;52.060;5.138;2022-08-01T00:10:08;101746.44;;;23.32;63.14
56082;BME280;41957;52.060;5.138;2022-08-01T00:12:34;101744.69;;;23.31;63.43
56082;BME280;41957;52.060;5.138;2022-08-01T00:15:00;101742.97;;;23.30;63.39
56082;BME280;41957;52.060;5.138;2022-08-01T00:17:25;101739.31;;;23.31;63.13
56082;BME280;41957;52.060;5.138;2022-08-01T00:19:50;101739.31;;;23.31;63.10
56082;BME280;41957;52.060;5.138;2022-08-01T00:22:16;101750.06;;;23.31;63.44
56082;BME280;41957;52.060;5.138;2022-08-01T00:24:41;101748.34;;;23.30;63.34
56082;BME280;41957;52.060;5.138;2022-08-01T00:27:07;101748.34;;;23.30;63.07
56082;BME280;41957;52.060;5.138;2022-08-01T00:29:32;101754.56;;;23.30;63.29
56082;BME280;41957;52.060;5.138;2022-08-01T00:31:57;101760.91;;;23.29;63.18
56082;BME280;41957;52.060;5.138;2022-08-01T00:34:22;101753.69;;;23.30;63.29
56082;BME280;41957;52.060;5.138;2022-08-01T00:36:47;101756.38;;;23.30;62.97
56082;BME280;41957;52.060;5.138;2022-08-01T00:39:13;101753.69;;;23.30;62.96
56082;BME280;41957;52.060;5.138;2022-08-01T00:41:38;101756.38;;;23.30;63.11
56082;BME280;41957;52.060;5.138;2022-08-01T00:44:03;101750.22;;;23.28;63.08
56082;BME280;41957;52.060;5.138;2022-08-01T00:46:29;101755.59;;;23.28;62.97
56082;BME280;41957;52.060;5.138;2022-08-01T00:48:54;101748.50;;;23.27;63.35
56082;BME280;41957;52.060;5.138;2022-08-01T00:51:20;101752.06;;;23.27;63.15
56082;BME280;41957;52.060;5.138;2022-08-01T00:53:45;101759.25;;;23.27;63.08
56082;BME280;41957;52.060;5.138;2022-08-01T00:56:10;101752.06;;;23.27;63.27
56082;BME280;41957;52.060;5.138;2022-08-01T00:58:36;101753.00;;;23.26;63.01
56082;BME280;41957;52.060;5.138;2022-08-01T01:01:01;101758.38;;;23.26;62.99
56082;BME280;41957;52.060;5.138;2022-08-01T01:03:27;101759.34;;;23.25;63.13
56082;BME280;41957;52.060;5.138;2022-08-01T01:08:48;101757.53;;;23.26;63.09
56082;BME280;41957;52.060;5.138;2022-08-01T01:11:19;101751.28;;;23.25;63.03
56082;BME280;41957;52.060;5.138;2022-08-01T01:13:49;101753.09;;;23.25;62.94
56082;BME280;41957;52.060;5.138;2022-08-01T01:16:17;101755.78;;;23.25;63.10
56082;BME280;41957;52.060;5.138;2022-08-01T01:18:47;101744.19;;;23.24;63.13
56082;BME280;41957;52.060;5.138;2022-08-01T01:23:54;101742.47;;;23.23;62.90
56082;BME280;41957;52.060;5.138;2022-08-01T01:31:33;101741.59;;;23.23;63.02
56082;BME280;41957;52.060;5.138;2022-08-01T01:34:01;101739.84;;;23.22;63.15
56082;BME280;41957;52.060;5.138;2022-08-01T01:36:27;101740.75;;;23.22;62.89
56082;BME280;41957;52.060;5.138;2022-08-01T01:38:53;101739.84;;;23.22;63.06
56082;BME280;41957;52.060;5.138;2022-08-01T01:41:19;101738.97;;;23.21;62.98
56082;BME280;41957;52.060;5.138;2022-08-01T01:43:46;101744.34;;;23.21;62.99
56082;BME280;41957;52.060;5.138;2022-08-01T01:46:12;101748.00;;;23.20;62.95
56082;BME280;41957;52.060;5.138;2022-08-01T01:48:40;101743.50;;;23.21;62.97
56082;BME280;41957;52.060;5.138;2022-08-01T01:51:08;101743.59;;;23.19;62.92
56082;BME280;41957;52.060;5.138;2022-08-01T01:53:34;101750.75;;;23.19;63.13
56082;BME280;41957;52.060;5.138;2022-08-01T01:56:00;101756.13;;;23.19;63.13
56082;BME280;41957;52.060;5.138;2022-08-01T01:58:27;101746.34;;;23.18;63.06
56082;BME280;41957;52.060;5.138;2022-08-01T02:00:54;101750.84;;;23.17;63.01
56082;BME280;41957;52.060;5.138;2022-08-01T02:03:20;101746.34;;;23.18;62.95
56082;BME280;41957;52.060;5.138;2022-08-01T02:05:46;101749.13;;;23.16;63.15
56082;BME280;41957;52.060;5.138;2022-08-01T02:08:12;101744.53;;;23.18;63.08
56082;BME280;41957;52.060;5.138;2022-08-01T02:10:39;101753.53;;;23.17;63.07
56082;BME280;41957;52.060;5.138;2022-08-01T02:13:05;101755.25;;;23.18;63.22
56082;BME280;41957;52.060;5.138;2022-08-01T02:15:35;101756.28;;;23.16;63.00
56082;BME280;41957;52.060;5.138;2022-08-01T02:18:03;101755.34;;;23.17;63.08
56082;BME280;41957;52.060;5.138;2022-08-01T02:20:29;101749.13;;;23.16;63.07
56082;BME280;41957;52.060;5.138;2022-08-01T02:23:04;101756.28;;;23.16;63.10
56082;BME280;41957;52.060;5.138;2022-08-01T02:25:32;101756.28;;;23.16;63.08
56082;BME280;41957;52.060;5.138;2022-08-01T02:28:06;101745.56;;;23.16;62.91
56082;BME280;41957;52.060;5.138;2022-08-01T02:30:35;101756.28;;;23.16;63.03
56082;BME280;41957;52.060;5.138;2022-08-01T02:33:05;101761.66;;;23.16;63.36
56082;BME280;41957;52.060;5.138;2022-08-01T02:35:33;101764.44;;;23.14;63.04
56082;BME280;41957;52.060;5.138;2022-08-01T02:38:01;101756.28;;;23.16;62.98
56082;BME280;41957;52.060;5.138;2022-08-01T02:40:28;101761.66;;;23.16;63.08
56082;BME280;41957;52.060;5.138;2022-08-01T02:42:54;101762.59;;;23.15;63.17
56082;BME280;41957;52.060;5.138;2022-08-01T02:45:22;101757.25;;;23.15;62.95
56082;BME280;41957;52.060;5.138;2022-08-01T02:47:49;101761.75;;;23.14;62.89
56082;BME280;41957;52.060;5.138;2022-08-01T02:50:14;101756.44;;;23.12;63.08
56082;BME280;41957;52.060;5.138;2022-08-01T02:52:42;101760.03;;;23.13;62.82
56082;BME280;41957;52.060;5.138;2022-08-01T02:55:08;101754.66;;;23.13;63.00
56082;BME280;41957;52.060;5.138;2022-08-01T02:57:34;101746.63;;;23.13;62.93
56082;BME280;41957;52.060;5.138;2022-08-01T03:00:02;101744.88;;;23.12;63.05
56082;BME280;41957;52.060;5.138;2022-08-01T03:02:29;101744.88;;;23.12;62.98
56082;BME280;41957;52.060;5.138;2022-08-01T03:04:55;101739.50;;;23.12;63.07
56082;BME280;41957;52.060;5.138;2022-08-01T03:07:21;101738.63;;;23.11;63.23
56082;BME280;41957;52.060;5.138;2022-08-01T03:09:48;101748.50;;;23.11;62.92
56082;BME280;41957;52.060;5.138;2022-08-01T03:12:15;101753.88;;;23.11;62.97
56082;BME280;41957;52.060;5.138;2022-08-01T03:14:41;101757.41;;;23.11;62.98
56082;BME280;41957;52.060;5.138;2022-08-01T03:17:07;101759.22;;;23.11;62.77
56082;BME280;41957;52.060;5.138;2022-08-01T03:19:33;101764.59;;;23.11;62.86
56082;BME280;41957;52.060;5.138;2022-08-01T03:22:00;101762.78;;;23.11;62.98
56082;BME280;41957;52.060;5.138;2022-08-01T03:24:28;101759.31;;;23.09;63.00
56082;BME280;41957;52.060;5.138;2022-08-01T03:26:54;101757.50;;;23.10;63.02
56082;BME280;41957;52.060;5.138;2022-08-01T03:29:21;101761.97;;;23.09;62.87
56082;BME280;41957;52.060;5.138;2022-08-01T03:31:48;101759.31;;;23.09;62.90
56082;BME280;41957;52.060;5.138;2022-08-01T03:34:14;101761.13;;;23.09;62.99
56082;BME280;41957;52.060;5.138;2022-08-01T03:37:01;101766.50;;;23.09;62.93
56082;BME280;41957;52.060;5.138;2022-08-01T03:39:26;101760.38;;;23.07;62.96
56082;BME280;41957;52.060;5.138;2022-08-01T03:41:59;101765.63;;;23.08;62.89
56082;BME280;41957;52.060;5.138;2022-08-01T03:44:26;101760.25;;;23.08;63.23
56082;BME280;41957;52.060;5.138;2022-08-01T03:46:58;101765.63;;;23.08;63.04
56082;BME280;41957;52.060;5.138;2022-08-01T03:49:25;101761.22;;;23.07;62.84
56082;BME280;41957;52.060;5.138;2022-08-01T03:51:53;101759.47;;;23.06;62.92
56082;BME280;41957;52.060;5.138;2022-08-01T03:54:23;101763.06;;;23.07;63.16
56082;BME280;41957;52.060;5.138;2022-08-01T03:56:49;101760.44;;;23.05;62.91
56082;BME280;41957;52.060;5.138;2022-08-01T03:59:16;101763.13;;;23.05;62.96
56082;BME280;41957;52.060;5.138;2022-08-01T04:01:42;101761.41;;;23.04;63.20
56082;BME280;41957;52.060;5.138;2022-08-01T04:04:08;101760.53;;;23.04;63.15
56082;BME280;41957;52.060;5.138;2022-08-01T04:06:33;101754.28;;;23.03;63.11
56082;BME280;41957;52.060;5.138;2022-08-01T04:09:02;101763.22;;;23.04;62.88
56082;BME280;41957;52.060;5.138;2022-08-01T04:11:27;101764.16;;;23.03;62.95
56082;BME280;41957;52.060;5.138;2022-08-01T04:13:53;101761.56;;;23.01;62.97
56082;BME280;41957;52.060;5.138;2022-08-01T04:16:19;101768.66;;;23.02;63.07
56082;BME280;41957;52.060;5.138;2022-08-01T04:18:44;101769.59;;;23.01;62.99
56082;BME280;41957;52.060;5.138;2022-08-01T04:21:09;101776.69;;;23.02;62.92
56082;BME280;41957;52.060;5.138;2022-08-01T04:23:35;101774.13;;;23.01;63.08
56082;BME280;41957;52.060;5.138;2022-08-01T04:26:00;101777.66;;;23.01;62.83
56082;BME280;41957;52.060;5.138;2022-08-01T04:28:29;101778.50;;;23.02;62.74
56082;BME280;41957;52.060;5.138;2022-08-01T04:30:55;101785.75;;;23.00;62.90
56082;BME280;41957;52.060;5.138;2022-08-01T04:33:20;101782.22;;;22.99;63.05
56082;BME280;41957;52.060;5.138;2022-08-01T04:35:46;101783.09;;;23.00;62.86
56082;BME280;41957;52.060;5.138;2022-08-01T04:38:13;101783.19;;;22.98;62.97
56082;BME280;41957;52.060;5.138;2022-08-01T04:40:41;101790.28;;;22.99;62.97
56082;BME280;41957;52.060;5.138;2022-08-01T04:43:07;101783.09;;;23.00;62.95
56082;BME280;41957;52.060;5.138;2022-08-01T04:45:33;101785.69;;;23.01;62.90
56082;BME280;41957;52.060;5.138;2022-08-01T04:47:59;101793.75;;;23.01;62.76
56082;BME280;41957;52.060;5.138;2022-08-01T04:50:24;101795.56;;;23.01;62.71
56082;BME280;41957;52.060;5.138;2022-08-01T04:52:50;101799.09;;;23.01;62.83
56082;BME280;41957;52.060;5.138;2022-08-01T04:55:16;101802.56;;;23.03;62.70
56082;BME280;41957;52.060;5.138;2022-08-01T04:57:42;101803.59;;;23.01;62.82
56082;BME280;41957;52.060;5.138;2022-08-01T05:00:09;101802.66;;;23.02;62.86
56082;BME280;41957;52.060;5.138;2022-08-01T05:02:35;101797.28;;;23.02;62.94
56082;BME280;41957;52.060;5.138;2022-08-01T05:05:01;101810.59;;;23.03;62.84
56082;BME280;41957;52.060;5.138;2022-08-01T05:07:26;101812.41;;;23.03;62.65
56082;BME280;41957;52.060;5.138;2022-08-01T05:09:51;101805.22;;;23.03;62.67
56082;BME280;41957;52.060;5.138;2022-08-01T05:12:17;101815.97;;;23.03;62.91
56082;BME280;41957;52.060;5.138;2022-08-01T05:14:42;101811.50;;;23.04;62.93
56082;BME280;41957;52.060;5.138;2022-08-01T05:17:08;101810.59;;;23.03;62.97
56082;BME280;41957;52.060;5.138;2022-08-01T05:19:34;101814.25;;;23.02;62.75
56082;BME280;41957;52.060;5.138;2022-08-01T05:21:59;101816.84;;;23.04;62.77
56082;BME280;41957;52.060;5.138;2022-08-01T05:24:26;101807.16;;;23.01;62.90
56082;BME280;41957;52.060;5.138;2022-08-01T05:26:53;101813.38;;;23.02;62.82
56082;BME280;41957;52.060;5.138;2022-08-01T05:29:18;101823.25;;;23.01;62.81
56082;BME280;41957;52.060;5.138;2022-08-01T05:31:43;101822.28;;;23.02;63.02
56082;BME280;41957;52.060;5.138;2022-08-01T05:34:09;101820.47;;;23.03;62.94
56082;BME280;41957;52.060;5.138;2022-08-01T05:36:34;101812.50;;;23.01;62.95
56082;BME280;41957;52.060;5.138;2022-08-01T05:39:00;101812.69;;;22.98;62.99
56082;BME280;41957;52.060;5.138;2022-08-01T05:41:25;101817.09;;;22.99;62.90
56082;BME280;41957;52.060;5.138;2022-08-01T05:43:51;101814.41;;;22.99;62.75
56082;BME280;41957;52.060;5.138;2022-08-01T05:46:16;101819.59;;;23.02;62.89
56082;BME280;41957;52.060;5.138;2022-08-01T05:48:41;101827.66;;;23.02;63.13
56082;BME280;41957;52.060;5.138;2022-08-01T05:51:07;101828.69;;;23.00;63.10
56082;BME280;41957;52.060;5.138;2022-08-01T05:53:32;101826.84;;;23.00;63.13
56082;BME280;41957;52.060;5.138;2022-08-01T05:55:59;101833.97;;;23.01;63.45
56082;BME280;41957;52.060;5.138;2022-08-01T05:58:24;101831.34;;;23.00;63.43
56082;BME280;41957;52.060;5.138;2022-08-01T06:00:50;101836.72;;;23.00;63.71
56082;BME280;41957;52.060;5.138;2022-08-01T06:03:16;101838.31;;;23.04;63.50
56082;BME280;41957;52.060;5.138;2022-08-01T06:05:41;101841.75;;;23.06;63.61
56082;BME280;41957;52.060;5.138;2022-08-01T06:08:06;101847.97;;;23.06;63.68
56082;BME280;41957;52.060;5.138;2022-08-01T06:10:31;101845.56;;;23.02;64.02
56082;BME280;41957;52.060;5.138;2022-08-01T06:12:57;101845.56;;;23.02;63.92
56082;BME280;41957;52.060;5.138;2022-08-01T06:15:22;101847.22;;;23.04;63.96
56082;BME280;41957;52.060;5.138;2022-08-01T06:17:47;101851.78;;;23.02;64.14
56082;BME280;41957;52.060;5.138;2022-08-01T06:20:12;101857.16;;;23.02;64.04
56082;BME280;41957;52.060;5.138;2022-08-01T06:22:38;101851.78;;;23.02;64.24
56082;BME280;41957;52.060;5.138;2022-08-01T06:25:05;101851.00;;;23.00;64.02
56082;BME280;41957;52.060;5.138;2022-08-01T06:27:30;101848.25;;;23.02;64.20
56082;BME280;41957;52.060;5.138;2022-08-01T06:29:55;101847.75;;;22.94;64.65
56082;BME280;41957;52.060;5.138;2022-08-01T06:32:21;101840.97;;;22.86;64.50
56082;BME280;41957;52.060;5.138;2022-08-01T06:34:51;101848.63;;;22.94;64.48
56082;BME280;41957;52.060;5.138;2022-08-01T06:37:16;101849.38;;;22.98;64.11
56082;BME280;41957;52.060;5.138;2022-08-01T06:39:41;101847.44;;;23.00;64.15
56082;BME280;41957;52.060;5.138;2022-08-01T06:42:07;101853.59;;;23.02;64.14
56082;BME280;41957;52.060;5.138;2022-08-01T06:44:32;101858.81;;;23.05;63.99
56082;BME280;41957;52.060;5.138;2022-08-01T06:46:57;101860.47;;;23.07;64.08
56082;BME280;41957;52.060;5.138;2022-08-01T06:49:23;101857.84;;;23.06;63.96
56082;BME280;41957;52.060;5.138;2022-08-01T06:51:48;101857.84;;;23.06;64.54
56082;BME280;41957;52.060;5.138;2022-08-01T06:54:14;101863.22;;;23.06;64.01
56082;BME280;41957;52.060;5.138;2022-08-01T06:56:39;101859.81;;;23.02;64.45
56082;BME280;41957;52.060;5.138;2022-08-01T06:59:04;101860.78;;;23.01;64.56
56082;BME280;41957;52.060;5.138;2022-08-01T07:01:29;101859.03;;;23.00;64.54
56082;BME280;41957;52.060;5.138;2022-08-01T07:03:55;101863.38;;;23.03;64.52
56082;BME280;41957;52.060;5.138;2022-08-01T07:06:24;101866.16;;;23.01;64.40
56082;BME280;41957;52.060;5.138;2022-08-01T07:08:49;101865.03;;;23.05;64.71
56082;BME280;41957;52.060;5.138;2022-08-01T07:11:15;101864.00;;;23.08;64.48
56082;BME280;41957;52.060;5.138;2022-08-01T07:13:40;101864.78;;;23.10;64.33
56082;BME280;41957;52.060;5.138;2022-08-01T07:16:05;101870.06;;;23.11;64.46
56082;BME280;41957;52.060;5.138;2022-08-01T07:18:30;101878.09;;;23.11;64.45
56082;BME280;41957;52.060;5.138;2022-08-01T07:20:56;101877.25;;;23.11;64.64
56082;BME280;41957;52.060;5.138;2022-08-01T07:23:21;101884.16;;;23.15;64.56
56082;BME280;41957;52.060;5.138;2022-08-01T07:25:47;101888.59;;;23.16;64.73
56082;BME280;41957;52.060;5.138;2022-08-01T07:28:13;101879.50;;;23.19;64.53
56082;BME280;41957;52.060;5.138;2022-08-01T07:30:39;101885.47;;;23.08;64.76
56082;BME280;41957;52.060;5.138;2022-08-01T07:33:07;101895.06;;;22.60;66.01
56082;BME280;41957;52.060;5.138;2022-08-01T07:35:32;101889.66;;;22.61;66.01
56082;BME280;41957;52.060;5.138;2022-08-01T07:37:57;101895.47;;;22.87;65.12
56082;BME280;41957;52.060;5.138;2022-08-01T07:40:22;101896.41;;;23.03;64.98
56082;BME280;41957;52.060;5.138;2022-08-01T07:42:48;101904.78;;;23.15;64.36
56082;BME280;41957;52.060;5.138;2022-08-01T07:45:13;101903.66;;;23.19;64.15
56082;BME280;41957;52.060;5.138;2022-08-01T07:47:39;101904.28;;;23.24;64.23
56082;BME280;41957;52.060;5.138;2022-08-01T07:50:04;101909.63;;;23.24;64.21
56082;BME280;41957;52.060;5.138;2022-08-01T07:52:30;101913.81;;;23.29;63.85
56082;BME280;41957;52.060;5.138;2022-08-01T07:54:56;101915.53;;;23.30;64.01
56082;BME280;41957;52.060;5.138;2022-08-01T07:57:22;101922.66;;;23.31;63.95
56082;BME280;41957;52.060;5.138;2022-08-01T07:59:47;101921.75;;;23.31;63.95
56082;BME280;41957;52.060;5.138;2022-08-01T08:02:13;101925.88;;;23.38;63.95
56082;BME280;41957;52.060;5.138;2022-08-01T08:04:38;101923.09;;;23.40;63.94
56082;BME280;41957;52.060;5.138;2022-08-01T08:07:03;101922.00;;;23.44;63.90
56082;BME280;41957;52.060;5.138;2022-08-01T08:09:28;101919.84;;;23.50;63.30
56082;BME280;41957;52.060;5.138;2022-08-01T08:11:54;101914.38;;;23.52;63.18
56082;BME280;41957;52.060;5.138;2022-08-01T08:14:19;101922.41;;;23.52;63.28
56082;BME280;41957;52.060;5.138;2022-08-01T08:16:44;101922.25;;;23.55;63.02
56082;BME280;41957;52.060;5.138;2022-08-01T08:19:10;101930.06;;;23.59;62.89
56082;BME280;41957;52.060;5.138;2022-08-01T08:21:35;101926.34;;;23.62;63.13
56082;BME280;41957;52.060;5.138;2022-08-01T08:24:01;101934.00;;;23.70;62.56
56082;BME280;41957;52.060;5.138;2022-08-01T08:26:45;101929.31;;;23.73;62.77
56082;BME280;41957;52.060;5.138;2022-08-01T08:29:10;101929.94;;;23.78;62.45
56082;BME280;41957;52.060;5.138;2022-08-01T08:31:35;101929.31;;;23.73;62.59
56082;BME280;41957;52.060;5.138;2022-08-01T08:34:01;101933.50;;;23.79;62.53
56082;BME280;41957;52.060;5.138;2022-08-01T08:36:26;101934.47;;;23.78;62.85
56082;BME280;41957;52.060;5.138;2022-08-01T08:38:51;101942.50;;;23.78;62.74
56082;BME280;41957;52.060;5.138;2022-08-01T08:41:17;101943.47;;;23.77;62.53
56082;BME280;41957;52.060;5.138;2022-08-01T08:43:42;101948.22;;;23.72;62.97
56082;BME280;41957;52.060;5.138;2022-08-01T08:46:07;101943.31;;;23.80;62.91
56082;BME280;41957;52.060;5.138;2022-08-01T08:48:33;101951.72;;;23.56;61.84
56082;BME280;41957;52.060;5.138;2022-08-01T08:50:59;101949.00;;;23.41;62.71
56082;BME280;41957;52.060;5.138;2022-08-01T08:53:25;101948.25;;;23.54;62.84
56082;BME280;41957;52.060;5.138;2022-08-01T08:55:51;101952.81;;;23.70;62.40
56082;BME280;41957;52.060;5.138;2022-08-01T08:58:16;101956.47;;;23.85;62.14
56082;BME280;41957;52.060;5.138;2022-08-01T09:00:43;101962.13;;;23.96;61.69
56082;BME280;41957;52.060;5.138;2022-08-01T09:03:08;101962.34;;;23.91;61.99
56082;BME280;41957;52.060;5.138;2022-08-01T09:05:33;101957.78;;;23.93;61.70
56082;BME280;41957;52.060;5.138;2022-08-01T09:07:59;101958.81;;;23.91;62.07
56082;BME280;41957;52.060;5.138;2022-08-01T09:10:25;101968.84;;;23.87;62.16
56082;BME280;41957;52.060;5.138;2022-08-01T09:15:49;101965.72;;;23.95;61.82
56082;BME280;41957;52.060;5.138;2022-08-01T09:18:32;101970.25;;;23.94;61.72
56082;BME280;41957;52.060;5.138;2022-08-01T09:23:41;101971.03;;;23.96;62.21
56082;BME280;41957;52.060;5.138;2022-08-01T09:26:08;101977.19;;;23.98;61.90
56082;BME280;41957;52.060;5.138;2022-08-01T09:28:33;101978.06;;;23.99;62.07
56082;BME280;41957;52.060;5.138;2022-08-01T09:30:58;101977.19;;;23.98;62.19
56082;BME280;41957;52.060;5.138;2022-08-01T09:33:46;101986.81;;;24.02;61.82
56082;BME280;41957;52.060;5.138;2022-08-01T09:36:11;101987.75;;;24.01;61.89
56082;BME280;41957;52.060;5.138;2022-08-01T09:38:36;101986.19;;;23.97;62.20
56082;BME280;41957;52.060;5.138;2022-08-01T09:41:02;101978.91;;;23.99;62.22
56082;BME280;41957;52.060;5.138;2022-08-01T09:43:28;101982.56;;;23.98;62.17
56082;BME280;41957;52.060;5.138;2022-08-01T09:45:54;101984.53;;;23.95;62.27
56082;BME280;41957;52.060;5.138;2022-08-01T09:48:20;101990.78;;;23.95;62.20
56082;BME280;41957;52.060;5.138;2022-08-01T09:50:46;101988.09;;;23.95;61.89
56082;BME280;41957;52.060;5.138;2022-08-01T09:53:12;101994.41;;;23.94;62.01
56082;BME280;41957;52.060;5.138;2022-08-01T09:55:38;101997.09;;;23.94;62.37
56082;BME280;41957;52.060;5.138;2022-08-01T09:58:03;101994.56;;;23.91;62.29
56082;BME280;41957;52.060;5.138;2022-08-01T10:00:29;101997.25;;;23.91;62.00
56082;BME280;41957;52.060;5.138;2022-08-01T10:02:55;101994.56;;;23.91;62.22
56082;BME280;41957;52.060;5.138;2022-08-01T10:05:29;101994.75;;;23.88;62.15
56082;BME280;41957;52.060;5.138;2022-08-01T10:07:55;102000.91;;;23.90;62.34
56082;BME280;41957;52.060;5.138;2022-08-01T10:10:21;101999.09;;;23.91;61.98
56082;BME280;41957;52.060;5.138;2022-08-01T10:12:46;102008.00;;;23.91;61.88
56082;BME280;41957;52.060;5.138;2022-08-01T10:15:15;102003.44;;;23.93;61.46
56082;BME280;41957;52.060;5.138;2022-08-01T10:17:41;102011.22;;;23.98;61.49
56082;BME280;41957;52.060;5.138;2022-08-01T10:20:11;102009.44;;;23.98;61.53
56082;BME280;41957;52.060;5.138;2022-08-01T10:22:36;102003.00;;;24.01;61.72
56082;BME280;41957;52.060;5.138;2022-08-01T10:25:03;102011.03;;;24.01;61.52
56082;BME280;41957;52.060;5.138;2022-08-01T10:27:29;102001.25;;;24.00;61.34
56082;BME280;41957;52.060;5.138;2022-08-01T10:29:55;102003.16;;;23.98;61.62
56082;BME280;41957;52.060;5.138;2022-08-01T10:32:21;102000.41;;;23.99;61.45
56082;BME280;41957;52.060;5.138;2022-08-01T10:34:47;101998.69;;;23.98;61.59
56082;BME280;41957;52.060;5.138;2022-08-01T10:37:13;101999.53;;;23.99;61.57
56082;BME280;41957;52.060;5.138;2022-08-01T10:39:39;101995.91;;;24.00;61.45
56082;BME280;41957;52.060;5.138;2022-08-01T10:42:05;102000.41;;;23.99;61.45
56082;BME280;41957;52.060;5.138;2022-08-01T10:44:31;101991.00;;;23.75;57.60
56082;BME280;41957;52.060;5.138;2022-08-01T10:47:09;102009.44;;;23.48;56.07
56082;BME280;41957;52.060;5.138;2022-08-01T10:49:36;101992.97;;;23.38;56.28
56082;BME280;41957;52.060;5.138;2022-08-01T10:52:05;102002.88;;;23.36;56.32
56082;BME280;41957;52.060;5.138;2022-08-01T10:54:37;101998.66;;;23.32;55.16
56082;BME280;41957;52.060;5.138;2022-08-01T10:57:03;102007.88;;;23.26;56.04
56082;BME280;41957;52.060;5.138;2022-08-01T10:59:30;102003.53;;;23.24;55.99
56082;BME280;41957;52.060;5.138;2022-08-01T11:01:56;102004.16;;;23.29;56.01
56082;BME280;41957;52.060;5.138;2022-08-01T11:04:28;102002.56;;;23.25;56.00
56082;BME280;41957;52.060;5.138;2022-08-01T11:09:37;102005.69;;;23.17;56.03
56082;BME280;41957;52.060;5.138;2022-08-01T11:12:13;102003.78;;;23.02;56.23
56082;BME280;41957;52.060;5.138;2022-08-01T11:17:35;102007.91;;;22.90;56.30
56082;BME280;41957;52.060;5.138;2022-08-01T11:20:10;102005.81;;;22.97;55.93
56082;BME280;41957;52.060;5.138;2022-08-01T11:23:15;102011.31;;;22.94;54.70
56082;BME280;41957;52.060;5.138;2022-08-01T11:30:48;102013.56;;;23.03;54.72
56082;BME280;41957;52.060;5.138;2022-08-01T11:33:14;102014.34;;;23.05;54.71
56082;BME280;41957;52.060;5.138;2022-08-01T11:38:24;102013.72;;;23.17;54.45
56082;BME280;41957;52.060;5.138;2022-08-01T11:41:14;102016.88;;;23.08;54.27
56082;BME280;41957;52.060;5.138;2022-08-01T11:49:21;102020.34;;;23.10;55.25
56082;BME280;41957;52.060;5.138;2022-08-01T11:51:47;102019.47;;;23.09;54.85
56082;BME280;41957;52.060;5.138;2022-08-01T11:54:12;102018.59;;;23.09;54.49
56082;BME280;41957;52.060;5.138;2022-08-01T11:56:37;102029.88;;;23.16;53.82
56082;BME280;41957;52.060;5.138;2022-08-01T11:59:02;102021.06;;;23.13;52.88
56082;BME280;41957;52.060;5.138;2022-08-01T12:01:28;102019.78;;;23.21;52.82
56082;BME280;41957;52.060;5.138;2022-08-01T12:03:55;102020.50;;;23.24;52.66
56082;BME280;41957;52.060;5.138;2022-08-01T12:06:29;102028.00;;;23.18;51.36
56082;BME280;41957;52.060;5.138;2022-08-01T12:08:55;102017.19;;;23.19;50.50
56082;BME280;41957;52.060;5.138;2022-08-01T12:11:39;102024.03;;;23.25;51.48
56082;BME280;41957;52.060;5.138;2022-08-01T12:14:04;102020.50;;;23.24;50.78
56082;BME280;41957;52.060;5.138;2022-08-01T12:16:31;102029.50;;;23.23;50.65
56082;BME280;41957;52.060;5.138;2022-08-01T12:18:57;102025.84;;;23.24;51.31
56082;BME280;41957;52.060;5.138;2022-08-01T12:21:22;102027.69;;;23.24;51.33
56082;BME280;41957;52.060;5.138;2022-08-01T12:23:59;102020.44;;;23.26;50.05
56082;BME280;41957;52.060;5.138;2022-08-01T12:26:38;102016.00;;;23.25;51.24
56082;BME280;41957;52.060;5.138;2022-08-01T12:29:03;102020.28;;;23.29;50.68
56082;BME280;41957;52.060;5.138;2022-08-01T12:31:32;102022.00;;;23.30;51.17
56082;BME280;41957;52.060;5.138;2022-08-01T12:33:57;102014.81;;;23.30;50.61
56082;BME280;41957;52.060;5.138;2022-08-01T12:36:28;102022.84;;;23.30;50.02
56082;BME280;41957;52.060;5.138;2022-08-01T12:38:54;102019.63;;;23.41;50.89
56082;BME280;41957;52.060;5.138;2022-08-01T12:41:22;102023.25;;;23.40;50.97
56082;BME280;41957;52.060;5.138;2022-08-01T12:43:47;102021.34;;;23.42;50.56
56082;BME280;41957;52.060;5.138;2022-08-01T12:46:12;102023.34;;;23.39;50.85
56082;BME280;41957;52.060;5.138;2022-08-01T12:48:42;102023.06;;;23.43;50.69
56082;BME280;41957;52.060;5.138;2022-08-01T12:51:07;102023.81;;;23.47;51.36
56082;BME280;41957;52.060;5.138;2022-08-01T12:53:34;102023.88;;;23.45;51.21
56082;BME280;41957;52.060;5.138;2022-08-01T12:56:00;102027.53;;;23.44;51.54
56082;BME280;41957;52.060;5.138;2022-08-01T12:58:31;102021.28;;;23.44;51.52
56082;BME280;41957;52.060;5.138;2022-08-01T13:01:04;102014.97;;;23.45;52.13
56082;BME280;41957;52.060;5.138;2022-08-01T13:03:29;102015.91;;;23.44;52.11
56082;BME280;41957;52.060;5.138;2022-08-01T13:05:55;102020.34;;;23.45;52.30
56082;BME280;41957;52.060;5.138;2022-08-01T13:08:22;102019.31;;;23.47;52.58
56082;BME280;41957;52.060;5.138;2022-08-01T13:10:48;102016.63;;;23.47;52.41
56082;BME280;41957;52.060;5.138;2022-08-01T13:13:14;102022.75;;;23.49;52.52
56082;BME280;41957;52.060;5.138;2022-08-01T13:15:41;102019.91;;;23.52;51.98
56082;BME280;41957;52.060;5.138;2022-08-01T13:20:49;102012.97;;;23.48;52.06
56082;BME280;41957;52.060;5.138;2022-08-01T13:23:15;102020.16;;;23.48;51.89
56082;BME280;41957;52.060;5.138;2022-08-01T13:25:54;102014.81;;;23.48;52.26